Check out our new PWSWeather beta!
PWSweather.com
Personal Weather Stations
Station Observations

SkegnessGB

Lat: 53.147585, Lon: 0.345774

Elevation: 18

Station Type: Fine Offset WH3080

http://www.skegnessweather.info/

High Low Average
Temperature 46.8°F8.2°C 43.5°F6.4°C 44.8°F7.1°C
Dew Point 42.5°F5.8°C 39.8°F4.3°C 41.3°F5.2°C
Winds 15.8 mph 25.4 kmh 6.4 mph 10.3 kmh 11.0 mph S17.7 kmh S
Wind Gusts 16.7 mph26.9 kmh 6.6 mph10.6 kmh 12.0 mph19.3 kmh
Humidity 92% 83% 88%
Pressure 30.56 in1034.9 mb 30.51 in1033.2 mb -
Precipitation 0.00 in0.0 mm - -
Hour Temp Dew Point Humidity Winds Wind Gusts Pressure Precip Precip Rate Daily Precip Total
12:00 AM 44.1°F6.7°C 41.0°F5.0°C 89% 11.8 mph S19.0 kmh S 12.5 mph20.1 kmh 30.51 in1033.2 mb 0.00 in0.0 mm 0.00 in0.0 mm 0.00 in0.0 mm
12:10 AM 44.1°F6.7°C 41.0°F5.0°C 89% 11.3 mph SSE18.2 kmh SSE 10.1 mph16.3 kmh 30.51 in1033.2 mb 0.00 in0.0 mm 0.00 in0.0 mm 0.00 in0.0 mm
12:20 AM 44.2°F6.8°C 41.2°F5.1°C 89% 9.9 mph S15.9 kmh S 10.1 mph16.3 kmh 30.51 in1033.2 mb 0.00 in0.0 mm 0.00 in0.0 mm 0.00 in0.0 mm
12:30 AM 44.2°F6.8°C 41.2°F5.1°C 89% 11.0 mph S17.7 kmh S 14.3 mph23.0 kmh 30.51 in1033.2 mb 0.00 in0.0 mm 0.00 in0.0 mm 0.00 in0.0 mm
12:40 AM 44.1°F6.7°C 41.0°F5.0°C 89% 11.2 mph S18.0 kmh S 10.8 mph17.4 kmh 30.51 in1033.2 mb 0.00 in0.0 mm 0.00 in0.0 mm 0.00 in0.0 mm
12:50 AM 44.1°F6.7°C 41.0°F5.0°C 89% 11.9 mph S19.2 kmh S 12.5 mph20.1 kmh 30.51 in1033.2 mb 0.00 in0.0 mm 0.00 in0.0 mm 0.00 in0.0 mm
01:00 AM 44.1°F6.7°C 41.0°F5.0°C 89% 9.9 mph SSE15.9 kmh SSE 11.8 mph19.0 kmh 30.52 in1033.5 mb 0.00 in0.0 mm 0.00 in0.0 mm 0.00 in0.0 mm
01:10 AM 44.1°F6.7°C 41.0°F5.0°C 89% 9.9 mph SSW15.9 kmh SSW 10.1 mph16.3 kmh 30.53 in1033.9 mb 0.00 in0.0 mm 0.00 in0.0 mm 0.00 in0.0 mm
01:20 AM 43.9°F6.6°C 41.1°F5.1°C 90% 9.4 mph S15.1 kmh S 10.1 mph16.3 kmh 30.51 in1033.2 mb 0.00 in0.0 mm 0.00 in0.0 mm 0.00 in0.0 mm
01:30 AM 44.1°F6.7°C 41.3°F5.2°C 90% 10.6 mph S17.1 kmh S 12.5 mph20.1 kmh 30.52 in1033.5 mb 0.00 in0.0 mm 0.00 in0.0 mm 0.00 in0.0 mm
01:40 AM 44.1°F6.7°C 41.3°F5.2°C 90% 9.4 mph S15.1 kmh S 10.1 mph16.3 kmh 30.51 in1033.2 mb 0.00 in0.0 mm 0.00 in0.0 mm 0.00 in0.0 mm
01:50 AM 44.1°F6.7°C 41.3°F5.2°C 90% 11.1 mph SSE17.9 kmh SSE 9.1 mph14.6 kmh 30.51 in1033.2 mb 0.00 in0.0 mm 0.00 in0.0 mm 0.00 in0.0 mm
02:00 AM 44.1°F6.7°C 41.3°F5.2°C 90% 9.4 mph S15.1 kmh S 10.8 mph17.4 kmh 30.51 in1033.2 mb 0.00 in0.0 mm 0.00 in0.0 mm 0.00 in0.0 mm
02:10 AM 44.2°F6.8°C 41.5°F5.3°C 90% 9.6 mph S15.4 kmh S 10.8 mph17.4 kmh 30.52 in1033.5 mb 0.00 in0.0 mm 0.00 in0.0 mm 0.00 in0.0 mm
02:20 AM 44.4°F6.9°C 42.0°F5.6°C 91% 11.0 mph S17.7 kmh S 10.8 mph17.4 kmh 30.52 in1033.5 mb 0.00 in0.0 mm 0.00 in0.0 mm 0.00 in0.0 mm
02:30 AM 44.4°F6.9°C 42.0°F5.6°C 91% 9.7 mph S15.6 kmh S 12.5 mph20.1 kmh 30.52 in1033.5 mb 0.00 in0.0 mm 0.00 in0.0 mm 0.00 in0.0 mm
02:40 AM 44.2°F6.8°C 41.8°F5.4°C 91% 7.3 mph S11.7 kmh S 8.4 mph13.5 kmh 30.53 in1033.9 mb 0.00 in0.0 mm 0.00 in0.0 mm 0.00 in0.0 mm
02:50 AM 44.2°F6.8°C 41.8°F5.4°C 91% 9.6 mph SSE15.4 kmh SSE 10.1 mph16.3 kmh 30.53 in1033.9 mb 0.00 in0.0 mm 0.00 in0.0 mm 0.00 in0.0 mm
03:00 AM 44.2°F6.8°C 41.8°F5.4°C 91% 9.1 mph SE14.6 kmh SE 9.1 mph14.6 kmh 30.54 in1034.2 mb 0.00 in0.0 mm 0.00 in0.0 mm 0.00 in0.0 mm
03:10 AM 44.2°F6.8°C 41.8°F5.4°C 91% 6.6 mph S10.6 kmh S 8.4 mph13.5 kmh 30.54 in1034.2 mb 0.00 in0.0 mm 0.00 in0.0 mm 0.00 in0.0 mm
03:20 AM 44.4°F6.9°C 42.0°F5.6°C 91% 8.9 mph SSE14.3 kmh SSE 10.8 mph17.4 kmh 30.53 in1033.9 mb 0.00 in0.0 mm 0.00 in0.0 mm 0.00 in0.0 mm
03:30 AM 44.4°F6.9°C 42.0°F5.6°C 91% 8.2 mph SE13.2 kmh SE 8.4 mph13.5 kmh 30.53 in1033.9 mb 0.00 in0.0 mm 0.00 in0.0 mm 0.00 in0.0 mm
03:40 AM 44.4°F6.9°C 42.0°F5.6°C 91% 8.4 mph SSE13.5 kmh SSE 9.1 mph14.6 kmh 30.52 in1033.5 mb 0.00 in0.0 mm 0.00 in0.0 mm 0.00 in0.0 mm
03:50 AM 44.4°F6.9°C 42.0°F5.6°C 91% 10.0 mph SSE16.1 kmh SSE 12.5 mph20.1 kmh 30.52 in1033.5 mb 0.00 in0.0 mm 0.00 in0.0 mm 0.00 in0.0 mm
04:00 AM 44.4°F6.9°C 42.0°F5.6°C 91% 10.5 mph S16.9 kmh S 11.8 mph19.0 kmh 30.52 in1033.5 mb 0.00 in0.0 mm 0.00 in0.0 mm 0.00 in0.0 mm
04:10 AM 44.4°F6.9°C 42.0°F5.6°C 91% 9.6 mph S15.4 kmh S 10.8 mph17.4 kmh 30.52 in1033.5 mb 0.00 in0.0 mm 0.00 in0.0 mm 0.00 in0.0 mm
04:20 AM 44.4°F6.9°C 42.0°F5.6°C 91% 11.3 mph S18.2 kmh S 12.5 mph20.1 kmh 30.52 in1033.5 mb 0.00 in0.0 mm 0.00 in0.0 mm 0.00 in0.0 mm
04:30 AM 44.4°F6.9°C 42.0°F5.6°C 91% 9.9 mph S15.9 kmh S 10.1 mph16.3 kmh 30.53 in1033.9 mb 0.00 in0.0 mm 0.00 in0.0 mm 0.00 in0.0 mm
04:40 AM 44.4°F6.9°C 42.2°F5.7°C 92% 12.0 mph S19.3 kmh S 10.8 mph17.4 kmh 30.52 in1033.5 mb 0.00 in0.0 mm 0.00 in0.0 mm 0.00 in0.0 mm
04:50 AM 44.6°F7.0°C 41.0°F5.0°C 87% 12.0 mph S19.3 kmh S 10.8 mph17.4 kmh 30.52 in1033.5 mb 0.00 in0.0 mm 0.00 in0.0 mm 0.00 in0.0 mm
05:00 AM 44.6°F7.0°C 41.0°F5.0°C 87% 10.6 mph S17.1 kmh S 10.1 mph16.3 kmh 30.53 in1033.9 mb 0.00 in0.0 mm 0.00 in0.0 mm 0.00 in0.0 mm
05:10 AM 44.6°F7.0°C 41.0°F5.0°C 87% 6.9 mph ESE11.1 kmh ESE 10.8 mph17.4 kmh 30.53 in1033.9 mb 0.00 in0.0 mm 0.00 in0.0 mm 0.00 in0.0 mm
05:20 AM 44.8°F7.1°C 41.1°F5.1°C 87% 11.9 mph SE19.2 kmh SE 11.8 mph19.0 kmh 30.52 in1033.5 mb 0.00 in0.0 mm 0.00 in0.0 mm 0.00 in0.0 mm
05:30 AM 44.8°F7.1°C 41.1°F5.1°C 87% 12.5 mph S20.1 kmh S 14.3 mph23.0 kmh 30.52 in1033.5 mb 0.00 in0.0 mm 0.00 in0.0 mm 0.00 in0.0 mm
05:40 AM 44.8°F7.1°C 41.4°F5.2°C 88% 10.9 mph SE17.5 kmh SE 14.3 mph23.0 kmh 30.52 in1033.5 mb 0.00 in0.0 mm 0.00 in0.0 mm 0.00 in0.0 mm
05:50 AM 44.8°F7.1°C 41.4°F5.2°C 88% 12.9 mph S20.8 kmh S 15.0 mph24.1 kmh 30.52 in1033.5 mb 0.00 in0.0 mm 0.00 in0.0 mm 0.00 in0.0 mm
06:00 AM 44.8°F7.1°C 41.4°F5.2°C 88% 15.1 mph S24.3 kmh S 15.0 mph24.1 kmh 30.52 in1033.5 mb 0.00 in0.0 mm 0.00 in0.0 mm 0.00 in0.0 mm
06:10 AM 44.8°F7.1°C 41.4°F5.2°C 88% 13.6 mph SSE21.9 kmh SSE 16.7 mph26.9 kmh 30.52 in1033.5 mb 0.00 in0.0 mm 0.00 in0.0 mm 0.00 in0.0 mm
06:20 AM 44.8°F7.1°C 41.4°F5.2°C 88% 15.6 mph S25.1 kmh S 16.0 mph25.7 kmh 30.52 in1033.5 mb 0.00 in0.0 mm 0.00 in0.0 mm 0.00 in0.0 mm
06:30 AM 44.6°F7.0°C 41.3°F5.2°C 88% 13.0 mph S20.9 kmh S 16.0 mph25.7 kmh 30.53 in1033.9 mb 0.00 in0.0 mm 0.00 in0.0 mm 0.00 in0.0 mm
06:40 AM 44.6°F7.0°C 41.3°F5.2°C 88% 12.0 mph SSE19.3 kmh SSE 14.3 mph23.0 kmh 30.52 in1033.5 mb 0.00 in0.0 mm 0.00 in0.0 mm 0.00 in0.0 mm
06:50 AM 44.6°F7.0°C 41.3°F5.2°C 88% 12.2 mph SSE19.6 kmh SSE 12.5 mph20.1 kmh 30.52 in1033.5 mb 0.00 in0.0 mm 0.00 in0.0 mm 0.00 in0.0 mm
07:00 AM 44.6°F7.0°C 41.3°F5.2°C 88% 11.4 mph WSW18.3 kmh WSW 12.5 mph20.1 kmh 30.53 in1033.9 mb 0.00 in0.0 mm 0.00 in0.0 mm 0.00 in0.0 mm
07:10 AM 44.6°F7.0°C 41.3°F5.2°C 88% 11.9 mph S19.2 kmh S 13.3 mph21.4 kmh 30.53 in1033.9 mb 0.00 in0.0 mm 0.00 in0.0 mm 0.00 in0.0 mm
07:20 AM 44.8°F7.1°C 41.4°F5.2°C 88% 11.6 mph S18.7 kmh S 11.8 mph19.0 kmh 30.53 in1033.9 mb 0.00 in0.0 mm 0.00 in0.0 mm 0.00 in0.0 mm
07:30 AM 44.8°F7.1°C 41.4°F5.2°C 88% 11.5 mph SSE18.5 kmh SSE 12.5 mph20.1 kmh 30.53 in1033.9 mb 0.00 in0.0 mm 0.00 in0.0 mm 0.00 in0.0 mm
07:40 AM 44.8°F7.1°C 41.4°F5.2°C 88% 13.7 mph SSE22.0 kmh SSE 12.5 mph20.1 kmh 30.53 in1033.9 mb 0.00 in0.0 mm 0.00 in0.0 mm 0.00 in0.0 mm
07:50 AM 44.8°F7.1°C 41.4°F5.2°C 88% 13.2 mph SSE21.2 kmh SSE 13.3 mph21.4 kmh 30.54 in1034.2 mb 0.00 in0.0 mm 0.00 in0.0 mm 0.00 in0.0 mm
08:00 AM 44.8°F7.1°C 41.4°F5.2°C 88% 11.6 mph SSE18.7 kmh SSE 14.3 mph23.0 kmh 30.54 in1034.2 mb 0.00 in0.0 mm 0.00 in0.0 mm 0.00 in0.0 mm
08:10 AM 44.8°F7.1°C 41.1°F5.1°C 87% 11.3 mph S18.2 kmh S 10.8 mph17.4 kmh 30.54 in1034.2 mb 0.00 in0.0 mm 0.00 in0.0 mm 0.00 in0.0 mm
08:20 AM 44.6°F7.0°C 41.0°F5.0°C 87% 10.8 mph SSE17.4 kmh SSE 10.1 mph16.3 kmh 30.53 in1033.9 mb 0.00 in0.0 mm 0.00 in0.0 mm 0.00 in0.0 mm
08:30 AM 44.4°F6.9°C 42.2°F5.7°C 92% 11.4 mph S18.3 kmh S 11.8 mph19.0 kmh 30.53 in1033.9 mb 0.00 in0.0 mm 0.00 in0.0 mm 0.00 in0.0 mm
08:40 AM 44.2°F6.8°C 41.8°F5.4°C 91% 12.1 mph S19.5 kmh S 12.5 mph20.1 kmh 30.54 in1034.2 mb 0.00 in0.0 mm 0.00 in0.0 mm 0.00 in0.0 mm
08:50 AM 44.2°F6.8°C 41.8°F5.4°C 91% 10.2 mph S16.4 kmh S 10.1 mph16.3 kmh 30.54 in1034.2 mb 0.00 in0.0 mm 0.00 in0.0 mm 0.00 in0.0 mm
09:00 AM 44.4°F6.9°C 42.0°F5.6°C 91% 11.1 mph S17.9 kmh S 12.5 mph20.1 kmh 30.54 in1034.2 mb 0.00 in0.0 mm 0.00 in0.0 mm 0.00 in0.0 mm
09:10 AM 44.6°F7.0°C 41.0°F5.0°C 87% 11.9 mph N19.2 kmh N 10.1 mph16.3 kmh 30.54 in1034.2 mb 0.00 in0.0 mm 0.00 in0.0 mm 0.00 in0.0 mm
09:20 AM 44.6°F7.0°C 41.0°F5.0°C 87% 12.3 mph S19.8 kmh S 11.8 mph19.0 kmh 30.55 in1034.5 mb 0.00 in0.0 mm 0.00 in0.0 mm 0.00 in0.0 mm
09:30 AM 44.8°F7.1°C 41.1°F5.1°C 87% 12.8 mph SSW20.6 kmh SSW 12.5 mph20.1 kmh 30.55 in1034.5 mb 0.00 in0.0 mm 0.00 in0.0 mm 0.00 in0.0 mm
09:40 AM 44.8°F7.1°C 40.8°F4.9°C 86% 10.8 mph S17.4 kmh S 10.8 mph17.4 kmh 30.55 in1034.5 mb 0.00 in0.0 mm 0.00 in0.0 mm 0.00 in0.0 mm
09:50 AM 44.8°F7.1°C 40.8°F4.9°C 86% 11.3 mph S18.2 kmh S 10.8 mph17.4 kmh 30.55 in1034.5 mb 0.00 in0.0 mm 0.00 in0.0 mm 0.00 in0.0 mm
10:00 AM 44.6°F7.0°C 40.7°F4.8°C 86% 13.4 mph S21.6 kmh S 12.5 mph20.1 kmh 30.56 in1034.9 mb 0.00 in0.0 mm 0.00 in0.0 mm 0.00 in0.0 mm
10:10 AM 44.6°F7.0°C 40.7°F4.8°C 86% 13.2 mph SW21.2 kmh SW 14.3 mph23.0 kmh 30.56 in1034.9 mb 0.00 in0.0 mm 0.00 in0.0 mm 0.00 in0.0 mm
10:20 AM 44.4°F6.9°C 42.0°F5.6°C 91% 15.8 mph S25.4 kmh S 15.0 mph24.1 kmh 30.55 in1034.5 mb 0.00 in0.0 mm 0.00 in0.0 mm 0.00 in0.0 mm
10:30 AM 44.4°F6.9°C 42.0°F5.6°C 91% 15.5 mph SSE24.9 kmh SSE 14.3 mph23.0 kmh 30.55 in1034.5 mb 0.00 in0.0 mm 0.00 in0.0 mm 0.00 in0.0 mm
10:40 AM 44.4°F6.9°C 42.0°F5.6°C 91% 13.8 mph S22.2 kmh S 13.3 mph21.4 kmh 30.55 in1034.5 mb 0.00 in0.0 mm 0.00 in0.0 mm 0.00 in0.0 mm
10:50 AM 44.4°F6.9°C 42.0°F5.6°C 91% 13.8 mph S22.2 kmh S 14.3 mph23.0 kmh 30.55 in1034.5 mb 0.00 in0.0 mm 0.00 in0.0 mm 0.00 in0.0 mm
11:00 AM 44.4°F6.9°C 42.0°F5.6°C 91% 11.9 mph S19.2 kmh S 14.3 mph23.0 kmh 30.55 in1034.5 mb 0.00 in0.0 mm 0.00 in0.0 mm 0.00 in0.0 mm
11:10 AM 44.8°F7.1°C 40.8°F4.9°C 86% 8.8 mph SE14.2 kmh SE 9.1 mph14.6 kmh 30.55 in1034.5 mb 0.00 in0.0 mm 0.00 in0.0 mm 0.00 in0.0 mm
11:20 AM 45.1°F7.3°C 41.2°F5.1°C 86% 9.8 mph S15.8 kmh S 10.1 mph16.3 kmh 30.55 in1034.5 mb 0.00 in0.0 mm 0.00 in0.0 mm 0.00 in0.0 mm
11:30 AM 45.1°F7.3°C 41.2°F5.1°C 86% 10.2 mph S16.4 kmh S 11.8 mph19.0 kmh 30.55 in1034.5 mb 0.00 in0.0 mm 0.00 in0.0 mm 0.00 in0.0 mm
11:40 AM 45.3°F7.4°C 41.4°F5.2°C 86% 10.9 mph SSW17.5 kmh SSW 11.8 mph19.0 kmh 30.54 in1034.2 mb 0.00 in0.0 mm 0.00 in0.0 mm 0.00 in0.0 mm
11:50 AM 45.3°F7.4°C 41.4°F5.2°C 86% 10.4 mph S16.7 kmh S 10.8 mph17.4 kmh 30.55 in1034.5 mb 0.00 in0.0 mm 0.00 in0.0 mm 0.00 in0.0 mm
12:00 PM 45.5°F7.5°C 41.6°F5.3°C 86% 9.6 mph SW15.4 kmh SW 10.8 mph17.4 kmh 30.55 in1034.5 mb 0.00 in0.0 mm 0.00 in0.0 mm 0.00 in0.0 mm
12:10 PM 45.7°F7.6°C 41.7°F5.4°C 86% 9.8 mph SSW15.8 kmh SSW 10.8 mph17.4 kmh 30.54 in1034.2 mb 0.00 in0.0 mm 0.00 in0.0 mm 0.00 in0.0 mm
12:20 PM 45.9°F7.7°C 41.9°F5.5°C 86% 9.9 mph SE15.9 kmh SE 10.1 mph16.3 kmh 30.54 in1034.2 mb 0.00 in0.0 mm 0.00 in0.0 mm 0.00 in0.0 mm
12:30 PM 46.0°F7.8°C 42.1°F5.6°C 86% 9.8 mph S15.8 kmh S 10.1 mph16.3 kmh 30.54 in1034.2 mb 0.00 in0.0 mm 0.00 in0.0 mm 0.00 in0.0 mm
12:40 PM 46.2°F7.9°C 42.3°F5.7°C 86% 10.8 mph S17.4 kmh S 10.8 mph17.4 kmh 30.54 in1034.2 mb 0.00 in0.0 mm 0.00 in0.0 mm 0.00 in0.0 mm
12:50 PM 46.4°F8.0°C 42.1°F5.6°C 85% 10.6 mph S17.1 kmh S 11.8 mph19.0 kmh 30.54 in1034.2 mb 0.00 in0.0 mm 0.00 in0.0 mm 0.00 in0.0 mm
01:00 PM 46.6°F8.1°C 42.3°F5.7°C 85% 11.6 mph S18.7 kmh S 11.8 mph19.0 kmh 30.54 in1034.2 mb 0.00 in0.0 mm 0.00 in0.0 mm 0.00 in0.0 mm
01:10 PM 46.6°F8.1°C 42.3°F5.7°C 85% 11.6 mph S18.7 kmh S 11.8 mph19.0 kmh 30.52 in1033.5 mb 0.00 in0.0 mm 0.00 in0.0 mm 0.00 in0.0 mm
01:20 PM 46.6°F8.1°C 42.3°F5.7°C 85% 11.6 mph SSE18.7 kmh SSE 13.3 mph21.4 kmh 30.52 in1033.5 mb 0.00 in0.0 mm 0.00 in0.0 mm 0.00 in0.0 mm
01:30 PM 46.6°F8.1°C 42.3°F5.7°C 85% 10.4 mph S16.7 kmh S 10.8 mph17.4 kmh 30.51 in1033.2 mb 0.00 in0.0 mm 0.00 in0.0 mm 0.00 in0.0 mm
01:40 PM 46.8°F8.2°C 42.5°F5.8°C 85% 11.7 mph S18.8 kmh S 12.5 mph20.1 kmh 30.51 in1033.2 mb 0.00 in0.0 mm 0.00 in0.0 mm 0.00 in0.0 mm
01:50 PM 46.6°F8.1°C 42.0°F5.6°C 84% 9.9 mph SE15.9 kmh SE 10.1 mph16.3 kmh 30.51 in1033.2 mb 0.00 in0.0 mm 0.00 in0.0 mm 0.00 in0.0 mm
02:00 PM 46.6°F8.1°C 42.0°F5.6°C 84% 11.7 mph S18.8 kmh S 11.8 mph19.0 kmh 30.52 in1033.5 mb 0.00 in0.0 mm 0.00 in0.0 mm 0.00 in0.0 mm
02:10 PM 46.6°F8.1°C 42.0°F5.6°C 84% 10.4 mph S16.7 kmh S 10.1 mph16.3 kmh 30.52 in1033.5 mb 0.00 in0.0 mm 0.00 in0.0 mm 0.00 in0.0 mm
02:20 PM 46.6°F8.1°C 42.0°F5.6°C 84% 11.1 mph SSE17.9 kmh SSE 10.8 mph17.4 kmh 30.52 in1033.5 mb 0.00 in0.0 mm 0.00 in0.0 mm 0.00 in0.0 mm
02:30 PM 46.6°F8.1°C 42.0°F5.6°C 84% 11.5 mph SW18.5 kmh SW 11.8 mph19.0 kmh 30.51 in1033.2 mb 0.00 in0.0 mm 0.00 in0.0 mm 0.00 in0.0 mm
02:40 PM 46.4°F8.0°C 41.8°F5.4°C 84% 11.4 mph SSE18.3 kmh SSE 10.8 mph17.4 kmh 30.52 in1033.5 mb 0.00 in0.0 mm 0.00 in0.0 mm 0.00 in0.0 mm
02:50 PM 46.4°F8.0°C 41.8°F5.4°C 84% 11.0 mph S17.7 kmh S 11.8 mph19.0 kmh 30.52 in1033.5 mb 0.00 in0.0 mm 0.00 in0.0 mm 0.00 in0.0 mm
03:00 PM 46.4°F8.0°C 42.1°F5.6°C 85% 11.3 mph S18.2 kmh S 12.5 mph20.1 kmh 30.53 in1033.9 mb 0.00 in0.0 mm 0.00 in0.0 mm 0.00 in0.0 mm
03:10 PM 46.2°F7.9°C 42.0°F5.6°C 85% 9.4 mph S15.1 kmh S 10.1 mph16.3 kmh 30.53 in1033.9 mb 0.00 in0.0 mm 0.00 in0.0 mm 0.00 in0.0 mm
03:20 PM 46.2°F7.9°C 42.0°F5.6°C 85% 10.5 mph S16.9 kmh S 13.3 mph21.4 kmh 30.53 in1033.9 mb 0.00 in0.0 mm 0.00 in0.0 mm 0.00 in0.0 mm
03:30 PM 46.0°F7.8°C 41.5°F5.3°C 84% 8.8 mph S14.2 kmh S 10.8 mph17.4 kmh 30.52 in1033.5 mb 0.00 in0.0 mm 0.00 in0.0 mm 0.00 in0.0 mm
03:40 PM 45.9°F7.7°C 41.3°F5.2°C 84% 10.5 mph SSW16.9 kmh SSW 11.8 mph19.0 kmh 30.53 in1033.9 mb 0.00 in0.0 mm 0.00 in0.0 mm 0.00 in0.0 mm
03:50 PM 45.7°F7.6°C 41.4°F5.2°C 85% 10.8 mph S17.4 kmh S 10.8 mph17.4 kmh 30.51 in1033.2 mb 0.00 in0.0 mm 0.00 in0.0 mm 0.00 in0.0 mm
04:00 PM 45.5°F7.5°C 41.3°F5.2°C 85% 12.8 mph S20.6 kmh S 15.0 mph24.1 kmh 30.52 in1033.5 mb 0.00 in0.0 mm 0.00 in0.0 mm 0.00 in0.0 mm
04:10 PM 45.3°F7.4°C 40.8°F4.9°C 84% 8.9 mph S14.3 kmh S 10.8 mph17.4 kmh 30.52 in1033.5 mb 0.00 in0.0 mm 0.00 in0.0 mm 0.00 in0.0 mm
04:20 PM 45.1°F7.3°C 40.9°F4.9°C 85% 11.5 mph SSW18.5 kmh SSW 10.8 mph17.4 kmh 30.52 in1033.5 mb 0.00 in0.0 mm 0.00 in0.0 mm 0.00 in0.0 mm
04:30 PM 45.0°F7.2°C 40.7°F4.8°C 85% 11.5 mph S18.5 kmh S 11.8 mph19.0 kmh 30.52 in1033.5 mb 0.00 in0.0 mm 0.00 in0.0 mm 0.00 in0.0 mm
04:40 PM 44.8°F7.1°C 40.5°F4.7°C 85% 12.0 mph SSW19.3 kmh SSW 11.8 mph19.0 kmh 30.53 in1033.9 mb 0.00 in0.0 mm 0.00 in0.0 mm 0.00 in0.0 mm
04:50 PM 44.6°F7.0°C 40.4°F4.7°C 85% 9.2 mph S14.8 kmh S 12.5 mph20.1 kmh 30.54 in1034.2 mb 0.00 in0.0 mm 0.00 in0.0 mm 0.00 in0.0 mm
05:00 PM 44.6°F7.0°C 40.4°F4.7°C 85% 11.8 mph SSE19.0 kmh SSE 10.8 mph17.4 kmh 30.54 in1034.2 mb 0.00 in0.0 mm 0.00 in0.0 mm 0.00 in0.0 mm
05:10 PM 44.4°F6.9°C 41.7°F5.4°C 90% 12.2 mph S19.6 kmh S 10.1 mph16.3 kmh 30.53 in1033.9 mb 0.00 in0.0 mm 0.00 in0.0 mm 0.00 in0.0 mm
05:20 PM 44.2°F6.8°C 41.5°F5.3°C 90% 9.3 mph S15.0 kmh S 10.1 mph16.3 kmh 30.53 in1033.9 mb 0.00 in0.0 mm 0.00 in0.0 mm 0.00 in0.0 mm
05:30 PM 44.2°F6.8°C 41.5°F5.3°C 90% 13.6 mph SSW21.9 kmh SSW 12.5 mph20.1 kmh 30.53 in1033.9 mb 0.00 in0.0 mm 0.00 in0.0 mm 0.00 in0.0 mm
05:40 PM 44.2°F6.8°C 41.5°F5.3°C 90% 11.4 mph S18.3 kmh S 10.1 mph16.3 kmh 30.53 in1033.9 mb 0.00 in0.0 mm 0.00 in0.0 mm 0.00 in0.0 mm
05:50 PM 44.1°F6.7°C 41.3°F5.2°C 90% 9.4 mph S15.1 kmh S 10.8 mph17.4 kmh 30.53 in1033.9 mb 0.00 in0.0 mm 0.00 in0.0 mm 0.00 in0.0 mm
06:00 PM 44.1°F6.7°C 41.3°F5.2°C 90% 9.1 mph S14.6 kmh S 9.1 mph14.6 kmh 30.52 in1033.5 mb 0.00 in0.0 mm 0.00 in0.0 mm 0.00 in0.0 mm
06:10 PM 43.9°F6.6°C 41.1°F5.1°C 90% 8.1 mph S13.0 kmh S 9.1 mph14.6 kmh 30.53 in1033.9 mb 0.00 in0.0 mm 0.00 in0.0 mm 0.00 in0.0 mm
06:20 PM 43.9°F6.6°C 41.1°F5.1°C 90% 8.5 mph S13.7 kmh S 8.4 mph13.5 kmh 30.52 in1033.5 mb 0.00 in0.0 mm 0.00 in0.0 mm 0.00 in0.0 mm
06:30 PM 43.9°F6.6°C 41.1°F5.1°C 90% 11.3 mph S18.2 kmh S 12.5 mph20.1 kmh 30.52 in1033.5 mb 0.00 in0.0 mm 0.00 in0.0 mm 0.00 in0.0 mm
06:40 PM 43.9°F6.6°C 41.1°F5.1°C 90% 9.6 mph S15.4 kmh S 10.1 mph16.3 kmh 30.52 in1033.5 mb 0.00 in0.0 mm 0.00 in0.0 mm 0.00 in0.0 mm
06:50 PM 43.7°F6.5°C 41.0°F5.0°C 90% 9.5 mph S15.3 kmh S 9.1 mph14.6 kmh 30.52 in1033.5 mb 0.00 in0.0 mm 0.00 in0.0 mm 0.00 in0.0 mm
07:00 PM 43.7°F6.5°C 41.0°F5.0°C 90% 9.0 mph SSW14.5 kmh SSW 9.1 mph14.6 kmh 30.52 in1033.5 mb 0.00 in0.0 mm 0.00 in0.0 mm 0.00 in0.0 mm
07:10 PM 43.5°F6.4°C 40.8°F4.9°C 90% 7.5 mph S12.1 kmh S 6.6 mph10.6 kmh 30.52 in1033.5 mb 0.00 in0.0 mm 0.00 in0.0 mm 0.00 in0.0 mm
07:20 PM 43.5°F6.4°C 40.8°F4.9°C 90% 10.6 mph SE17.1 kmh SE 10.1 mph16.3 kmh 30.52 in1033.5 mb 0.00 in0.0 mm 0.00 in0.0 mm 0.00 in0.0 mm
07:30 PM 43.9°F6.6°C 41.1°F5.1°C 90% 11.5 mph SW18.5 kmh SW 11.8 mph19.0 kmh 30.53 in1033.9 mb 0.00 in0.0 mm 0.00 in0.0 mm 0.00 in0.0 mm
07:40 PM 44.2°F6.8°C 41.5°F5.3°C 90% 9.2 mph S14.8 kmh S 10.8 mph17.4 kmh 30.52 in1033.5 mb 0.00 in0.0 mm 0.00 in0.0 mm 0.00 in0.0 mm
07:50 PM 44.4°F6.9°C 41.7°F5.4°C 90% 8.4 mph SW13.5 kmh SW 9.1 mph14.6 kmh 30.53 in1033.9 mb 0.00 in0.0 mm 0.00 in0.0 mm 0.00 in0.0 mm
08:00 PM 44.4°F6.9°C 41.7°F5.4°C 90% 9.6 mph SW15.4 kmh SW 10.8 mph17.4 kmh 30.53 in1033.9 mb 0.00 in0.0 mm 0.00 in0.0 mm 0.00 in0.0 mm
08:10 PM 44.6°F7.0°C 40.4°F4.7°C 85% 10.4 mph SSW16.7 kmh SSW 11.8 mph19.0 kmh 30.52 in1033.5 mb 0.00 in0.0 mm 0.00 in0.0 mm 0.00 in0.0 mm
08:20 PM 44.6°F7.0°C 40.1°F4.5°C 84% 9.0 mph SW14.5 kmh SW 10.8 mph17.4 kmh 30.52 in1033.5 mb 0.00 in0.0 mm 0.00 in0.0 mm 0.00 in0.0 mm
08:30 PM 44.4°F6.9°C 41.7°F5.4°C 90% 7.4 mph SSW11.9 kmh SSW 7.6 mph12.2 kmh 30.53 in1033.9 mb 0.00 in0.0 mm 0.00 in0.0 mm 0.00 in0.0 mm
08:40 PM 44.1°F6.7°C 41.3°F5.2°C 90% 6.4 mph S10.3 kmh S 6.6 mph10.6 kmh 30.53 in1033.9 mb 0.00 in0.0 mm 0.00 in0.0 mm 0.00 in0.0 mm
08:50 PM 44.1°F6.7°C 41.0°F5.0°C 89% 7.6 mph S12.2 kmh S 7.6 mph12.2 kmh 30.53 in1033.9 mb 0.00 in0.0 mm 0.00 in0.0 mm 0.00 in0.0 mm
09:00 PM 44.1°F6.7°C 41.0°F5.0°C 89% 9.1 mph SSE14.6 kmh SSE 9.1 mph14.6 kmh 30.52 in1033.5 mb 0.00 in0.0 mm 0.00 in0.0 mm 0.00 in0.0 mm
09:10 PM 44.1°F6.7°C 41.0°F5.0°C 89% 11.1 mph SSE17.9 kmh SSE 10.8 mph17.4 kmh 30.52 in1033.5 mb 0.00 in0.0 mm 0.00 in0.0 mm 0.00 in0.0 mm
09:20 PM 44.2°F6.8°C 41.2°F5.1°C 89% 12.6 mph S20.3 kmh S 11.8 mph19.0 kmh 30.52 in1033.5 mb 0.00 in0.0 mm 0.00 in0.0 mm 0.00 in0.0 mm
09:30 PM 44.4°F6.9°C 41.4°F5.2°C 89% 12.6 mph S20.3 kmh S 15.0 mph24.1 kmh 30.52 in1033.5 mb 0.00 in0.0 mm 0.00 in0.0 mm 0.00 in0.0 mm
09:40 PM 44.4°F6.9°C 41.4°F5.2°C 89% 11.5 mph SSW18.5 kmh SSW 15.0 mph24.1 kmh 30.52 in1033.5 mb 0.00 in0.0 mm 0.00 in0.0 mm 0.00 in0.0 mm
09:50 PM 44.6°F7.0°C 39.8°F4.3°C 83% 9.3 mph SW15.0 kmh SW 15.0 mph24.1 kmh 30.52 in1033.5 mb 0.00 in0.0 mm 0.00 in0.0 mm 0.00 in0.0 mm
10:00 PM 44.6°F7.0°C 39.8°F4.3°C 83% 9.4 mph SSW15.1 kmh SSW 12.5 mph20.1 kmh 30.52 in1033.5 mb 0.00 in0.0 mm 0.00 in0.0 mm 0.00 in0.0 mm
10:10 PM 44.6°F7.0°C 39.8°F4.3°C 83% 11.5 mph SSW18.5 kmh SSW 12.5 mph20.1 kmh 30.53 in1033.9 mb 0.00 in0.0 mm 0.00 in0.0 mm 0.00 in0.0 mm
10:20 PM 44.6°F7.0°C 39.8°F4.3°C 83% 9.2 mph S14.8 kmh S 10.1 mph16.3 kmh 30.52 in1033.5 mb 0.00 in0.0 mm 0.00 in0.0 mm 0.00 in0.0 mm
10:30 PM 44.6°F7.0°C 39.8°F4.3°C 83% 8.9 mph SW14.3 kmh SW 10.8 mph17.4 kmh 30.53 in1033.9 mb 0.00 in0.0 mm 0.00 in0.0 mm 0.00 in0.0 mm
10:40 PM 44.6°F7.0°C 39.8°F4.3°C 83% 9.9 mph SSW15.9 kmh SSW 13.3 mph21.4 kmh 30.53 in1033.9 mb 0.00 in0.0 mm 0.00 in0.0 mm 0.00 in0.0 mm
10:50 PM 44.6°F7.0°C 39.8°F4.3°C 83% 11.1 mph S17.9 kmh S 11.8 mph19.0 kmh 30.52 in1033.5 mb 0.00 in0.0 mm 0.00 in0.0 mm 0.00 in0.0 mm
11:00 PM 44.6°F7.0°C 39.8°F4.3°C 83% 11.8 mph SSW19.0 kmh SSW 11.8 mph19.0 kmh 30.51 in1033.2 mb 0.00 in0.0 mm 0.00 in0.0 mm 0.00 in0.0 mm
11:10 PM 44.4°F6.9°C 41.1°F5.1°C 88% 11.9 mph S19.2 kmh S 14.3 mph23.0 kmh 30.51 in1033.2 mb 0.00 in0.0 mm 0.00 in0.0 mm 0.00 in0.0 mm
11:20 PM 44.4°F6.9°C 41.1°F5.1°C 88% 12.0 mph SSW19.3 kmh SSW 13.3 mph21.4 kmh 30.51 in1033.2 mb 0.00 in0.0 mm 0.00 in0.0 mm 0.00 in0.0 mm
11:30 PM 44.4°F6.9°C 41.1°F5.1°C 88% 9.4 mph SSW15.1 kmh SSW 10.8 mph17.4 kmh 30.51 in1033.2 mb 0.00 in0.0 mm 0.00 in0.0 mm 0.00 in0.0 mm
11:40 PM 44.4°F6.9°C 41.1°F5.1°C 88% 11.1 mph SW17.9 kmh SW 14.3 mph23.0 kmh 30.51 in1033.2 mb 0.00 in0.0 mm 0.00 in0.0 mm 0.00 in0.0 mm
11:50 PM 44.4°F6.9°C 40.8°F4.9°C 87% 11.9 mph SW19.2 kmh SW 13.3 mph21.4 kmh 30.51 in1033.2 mb 0.00 in0.0 mm 0.00 in0.0 mm 0.00 in0.0 mm